TimeMDT,TemperatureF,Dew PointF,Humidity,Sea Level PressureIn,VisibilityMPH,Wind Direction,Wind SpeedMPH,Gust SpeedMPH,PrecipitationIn,Events,Conditions,WindDirDegrees,DateUTC
12:25 AM,73.4,66.2,78,30.14,10.0,SSE,8.1,-,0.00,Rain,Light Rain,160,2013-07-10 06:25:00
12:53 AM,73.0,68.0,84,30.04,10.0,SE,5.8,-,0.00,,Partly Cloudy,130,2013-07-10 06:53:00
1:53 AM,71.1,66.9,87,30.04,10.0,East,4.6,-,0.00,,Mostly Cloudy,80,2013-07-10 07:53:00
2:53 AM,70.0,66.0,87,30.05,10.0,East,6.9,-,N/A,,Scattered Clouds,90,2013-07-10 08:53:00
3:53 AM,70.0,64.9,84,30.06,10.0,NE,9.2,-,N/A,,Scattered Clouds,50,2013-07-10 09:53:00
4:26 AM,69.8,64.4,83,30.17,10.0,Variable,4.6,-,N/A,Thunderstorm,Scattered Clouds,0,2013-07-10 10:26:00
4:41 AM,69.8,64.4,83,30.17,10.0,NE,8.1,-,N/A,,Scattered Clouds,50,2013-07-10 10:41:00
4:53 AM,69.1,64.9,87,30.06,10.0,Variable,5.8,-,N/A,,Scattered Clouds,0,2013-07-10 10:53:00
5:53 AM,68.0,64.0,87,30.05,10.0,ESE,5.8,-,N/A,,Clear,120,2013-07-10 11:53:00
6:53 AM,69.1,63.0,81,30.04,10.0,SE,8.1,-,N/A,,Clear,140,2013-07-10 12:53:00
7:53 AM,69.1,63.0,81,30.11,10.0,NNE,9.2,-,N/A,,Mostly Cloudy,30,2013-07-10 13:53:00
8:53 AM,68.0,64.0,87,30.14,10.0,Calm,Calm,-,0.01,Rain,Light Rain,0,2013-07-10 14:53:00
9:06 AM,69.8,62.6,78,30.24,10.0,North,11.5,24.2,0.00,Rain,Light Rain,10,2013-07-10 15:06:00
9:26 AM,69.8,64.4,83,30.23,10.0,NE,6.9,-,0.00,Rain-Thunderstorm,Light Rain,40,2013-07-10 15:26:00
9:41 AM,69.8,64.4,83,30.21,10.0,NE,9.2,-,0.01,Rain,Light Rain,40,2013-07-10 15:41:00
9:53 AM,71.1,64.9,81,30.10,10.0,NE,13.8,-,0.01,,Scattered Clouds,50,2013-07-10 15:53:00
10:53 AM,77.0,64.0,64,30.12,10.0,NE,10.4,-,N/A,,Clear,40,2013-07-10 16:53:00
11:53 AM,81.0,61.0,50,30.08,10.0,East,12.7,18.4,N/A,,Clear,80,2013-07-10 17:53:00
12:53 PM,86.0,60.1,41,30.03,10.0,SE,18.4,23.0,N/A,,Clear,130,2013-07-10 18:53:00
1:53 PM,87.1,59.0,39,30.01,10.0,SE,21.9,31.1,N/A,,Clear,140,2013-07-10 19:53:00
2:53 PM,86.0,60.1,41,30.01,10.0,SSE,20.7,28.8,N/A,,Clear,150,2013-07-10 20:53:00
3:53 PM,88.0,55.9,34,29.97,10.0,SE,19.6,26.5,N/A,,Clear,130,2013-07-10 21:53:00
4:53 PM,89.1,55.9,32,29.96,10.0,SE,17.3,27.6,N/A,,Clear,140,2013-07-10 22:53:00
5:53 PM,87.1,57.0,36,29.96,10.0,SSE,17.3,23.0,N/A,,Clear,150,2013-07-10 23:53:00
6:53 PM,86.0,53.1,32,29.94,10.0,SSE,16.1,24.2,N/A,,Clear,150,2013-07-11 00:53:00
7:53 PM,81.0,55.0,41,29.97,10.0,SE,9.2,-,N/A,,Mostly Cloudy,140,2013-07-11 01:53:00
8:53 PM,79.0,53.1,40,29.99,10.0,SE,8.1,-,N/A,,Partly Cloudy,140,2013-07-11 02:53:00
9:53 PM,73.9,62.1,66,30.01,10.0,East,8.1,-,N/A,,Clear,100,2013-07-11 03:53:00
10:53 PM,70.0,62.1,76,30.02,10.0,Calm,Calm,-,N/A,,Clear,0,2013-07-11 04:53:00
11:53 PM,68.0,61.0,78,30.02,10.0,SE,5.8,-,N/A,,Clear,130,2013-07-11 05:53:00